sensor_id;sensor_type;location;lat;lon;timestamp;P1;durP1;ratioP1;P2;durP2;ratioP2
21754;SDS011;11039;50.028;19.938;2023-01-29T00:02:17;11.90;;;9.30;;
21754;SDS011;11039;50.028;19.938;2023-01-29T00:04:44;10.32;;;8.60;;
21754;SDS011;11039;50.028;19.938;2023-01-29T00:07:10;10.35;;;8.50;;
21754;SDS011;11039;50.028;19.938;2023-01-29T00:09:36;12.80;;;9.32;;
21754;SDS011;11039;50.028;19.938;2023-01-29T00:12:02;12.40;;;8.43;;
21754;SDS011;11039;50.028;19.938;2023-01-29T00:14:28;11.32;;;8.65;;
21754;SDS011;11039;50.028;19.938;2023-01-29T00:16:54;13.05;;;8.35;;
21754;SDS011;11039;50.028;19.938;2023-01-29T00:19:20;10.30;;;8.60;;
21754;SDS011;11039;50.028;19.938;2023-01-29T00:21:46;12.02;;;8.35;;
21754;SDS011;11039;50.028;19.938;2023-01-29T00:24:12;10.65;;;7.78;;
21754;SDS011;11039;50.028;19.938;2023-01-29T00:26:38;11.15;;;8.05;;
21754;SDS011;11039;50.028;19.938;2023-01-29T00:29:06;11.20;;;8.10;;
21754;SDS011;11039;50.028;19.938;2023-01-29T00:31:32;10.07;;;8.00;;
21754;SDS011;11039;50.028;19.938;2023-01-29T00:33:58;9.70;;;7.43;;
21754;SDS011;11039;50.028;19.938;2023-01-29T00:36:24;11.30;;;7.35;;
21754;SDS011;11039;50.028;19.938;2023-01-29T00:38:54;8.48;;;7.00;;
21754;SDS011;11039;50.028;19.938;2023-01-29T00:41:23;10.52;;;7.95;;
21754;SDS011;11039;50.028;19.938;2023-01-29T00:44:09;11.15;;;7.57;;
21754;SDS011;11039;50.028;19.938;2023-01-29T00:46:53;10.43;;;7.65;;
21754;SDS011;11039;50.028;19.938;2023-01-29T00:49:19;8.85;;;7.10;;
21754;SDS011;11039;50.028;19.938;2023-01-29T00:51:45;9.07;;;7.18;;
21754;SDS011;11039;50.028;19.938;2023-01-29T00:54:31;9.45;;;7.25;;
21754;SDS011;11039;50.028;19.938;2023-01-29T00:56:57;8.65;;;6.57;;
21754;SDS011;11039;50.028;19.938;2023-01-29T00:59:23;7.82;;;6.35;;
21754;SDS011;11039;50.028;19.938;2023-01-29T01:01:49;9.15;;;6.97;;
21754;SDS011;11039;50.028;19.938;2023-01-29T01:04:34;8.45;;;7.07;;
21754;SDS011;11039;50.028;19.938;2023-01-29T01:07:00;8.13;;;6.70;;
21754;SDS011;11039;50.028;19.938;2023-01-29T01:09:26;8.18;;;6.85;;
21754;SDS011;11039;50.028;19.938;2023-01-29T01:12:10;7.70;;;6.20;;
21754;SDS011;11039;50.028;19.938;2023-01-29T01:14:36;9.80;;;6.43;;
21754;SDS011;11039;50.028;19.938;2023-01-29T01:17:02;7.38;;;6.38;;
21754;SDS011;11039;50.028;19.938;2023-01-29T01:19:28;8.57;;;6.60;;
21754;SDS011;11039;50.028;19.938;2023-01-29T01:21:54;7.63;;;6.25;;
21754;SDS011;11039;50.028;19.938;2023-01-29T01:24:20;8.48;;;6.80;;
21754;SDS011;11039;50.028;19.938;2023-01-29T01:26:47;7.85;;;6.50;;
21754;SDS011;11039;50.028;19.938;2023-01-29T01:29:13;7.53;;;6.07;;
21754;SDS011;11039;50.028;19.938;2023-01-29T01:31:39;8.27;;;6.38;;
21754;SDS011;11039;50.028;19.938;2023-01-29T01:34:05;8.98;;;6.05;;
21754;SDS011;11039;50.028;19.938;2023-01-29T01:36:31;6.20;;;5.60;;
21754;SDS011;11039;50.028;19.938;2023-01-29T01:38:57;7.07;;;5.90;;
21754;SDS011;11039;50.028;19.938;2023-01-29T01:41:23;8.02;;;6.20;;
21754;SDS011;11039;50.028;19.938;2023-01-29T01:46:19;6.22;;;5.45;;
21754;SDS011;11039;50.028;19.938;2023-01-29T01:48:46;7.43;;;5.90;;
21754;SDS011;11039;50.028;19.938;2023-01-29T01:51:14;7.88;;;6.50;;
21754;SDS011;11039;50.028;19.938;2023-01-29T01:53:44;7.38;;;5.93;;
21754;SDS011;11039;50.028;19.938;2023-01-29T01:56:15;6.93;;;5.43;;
21754;SDS011;11039;50.028;19.938;2023-01-29T01:58:44;7.28;;;5.75;;
21754;SDS011;11039;50.028;19.938;2023-01-29T02:01:11;7.25;;;5.57;;
21754;SDS011;11039;50.028;19.938;2023-01-29T02:03:40;6.63;;;5.70;;
21754;SDS011;11039;50.028;19.938;2023-01-29T02:06:25;6.70;;;5.93;;
21754;SDS011;11039;50.028;19.938;2023-01-29T02:09:12;6.28;;;5.68;;
21754;SDS011;11039;50.028;19.938;2023-01-29T02:11:58;6.18;;;5.15;;
21754;SDS011;11039;50.028;19.938;2023-01-29T02:14:24;7.20;;;5.70;;
21754;SDS011;11039;50.028;19.938;2023-01-29T02:16:50;6.65;;;5.38;;
21754;SDS011;11039;50.028;19.938;2023-01-29T02:19:21;7.43;;;5.78;;
21754;SDS011;11039;50.028;19.938;2023-01-29T02:21:59;7.38;;;5.72;;
21754;SDS011;11039;50.028;19.938;2023-01-29T02:27:14;6.18;;;5.30;;
21754;SDS011;11039;50.028;19.938;2023-01-29T02:29:45;6.70;;;5.65;;
21754;SDS011;11039;50.028;19.938;2023-01-29T02:32:22;6.32;;;5.43;;
21754;SDS011;11039;50.028;19.938;2023-01-29T02:40:39;5.80;;;5.18;;
21754;SDS011;11039;50.028;19.938;2023-01-29T02:48:19;6.20;;;5.15;;
21754;SDS011;11039;50.028;19.938;2023-01-29T02:50:50;6.60;;;5.25;;
21754;SDS011;11039;50.028;19.938;2023-01-29T02:53:20;6.60;;;5.03;;
21754;SDS011;11039;50.028;19.938;2023-01-29T02:55:53;6.18;;;5.07;;
21754;SDS011;11039;50.028;19.938;2023-01-29T02:58:25;6.88;;;5.10;;
21754;SDS011;11039;50.028;19.938;2023-01-29T03:00:52;5.95;;;5.03;;
21754;SDS011;11039;50.028;19.938;2023-01-29T03:03:22;6.50;;;5.28;;
21754;SDS011;11039;50.028;19.938;2023-01-29T03:05:52;6.32;;;4.93;;
21754;SDS011;11039;50.028;19.938;2023-01-29T03:08:27;5.30;;;4.65;;
21754;SDS011;11039;50.028;19.938;2023-01-29T03:11:02;6.47;;;5.00;;
21754;SDS011;11039;50.028;19.938;2023-01-29T03:13:30;5.68;;;5.00;;
21754;SDS011;11039;50.028;19.938;2023-01-29T03:18:36;6.10;;;4.78;;
21754;SDS011;11039;50.028;19.938;2023-01-29T03:21:07;5.55;;;4.88;;
21754;SDS011;11039;50.028;19.938;2023-01-29T03:23:55;6.10;;;4.85;;
21754;SDS011;11039;50.028;19.938;2023-01-29T03:26:40;5.95;;;4.85;;
21754;SDS011;11039;50.028;19.938;2023-01-29T03:29:28;6.88;;;5.30;;
21754;SDS011;11039;50.028;19.938;2023-01-29T03:32:14;6.43;;;5.25;;
21754;SDS011;11039;50.028;19.938;2023-01-29T03:34:45;6.63;;;4.72;;
21754;SDS011;11039;50.028;19.938;2023-01-29T03:39:59;6.45;;;5.25;;
21754;SDS011;11039;50.028;19.938;2023-01-29T03:42:26;5.93;;;4.93;;
21754;SDS011;11039;50.028;19.938;2023-01-29T03:52:53;7.15;;;5.72;;
21754;SDS011;11039;50.028;19.938;2023-01-29T03:55:23;6.57;;;5.80;;
21754;SDS011;11039;50.028;19.938;2023-01-29T03:57:57;6.93;;;5.53;;
21754;SDS011;11039;50.028;19.938;2023-01-29T04:00:27;6.63;;;5.30;;
21754;SDS011;11039;50.028;19.938;2023-01-29T04:05:20;6.80;;;5.55;;
21754;SDS011;11039;50.028;19.938;2023-01-29T04:07:48;6.85;;;5.78;;
21754;SDS011;11039;50.028;19.938;2023-01-29T04:10:18;6.90;;;5.70;;
21754;SDS011;11039;50.028;19.938;2023-01-29T04:12:47;6.60;;;5.63;;
21754;SDS011;11039;50.028;19.938;2023-01-29T04:15:14;6.82;;;5.95;;
21754;SDS011;11039;50.028;19.938;2023-01-29T04:17:51;6.57;;;5.50;;
21754;SDS011;11039;50.028;19.938;2023-01-29T04:20:18;6.53;;;5.43;;
21754;SDS011;11039;50.028;19.938;2023-01-29T04:22:45;7.63;;;6.05;;
21754;SDS011;11039;50.028;19.938;2023-01-29T04:25:15;6.68;;;5.82;;
21754;SDS011;11039;50.028;19.938;2023-01-29T04:27:55;7.97;;;5.95;;
21754;SDS011;11039;50.028;19.938;2023-01-29T04:30:25;5.80;;;5.20;;
21754;SDS011;11039;50.028;19.938;2023-01-29T04:33:06;6.90;;;5.63;;
21754;SDS011;11039;50.028;19.938;2023-01-29T04:40:51;7.00;;;5.80;;
21754;SDS011;11039;50.028;19.938;2023-01-29T04:43:25;6.50;;;5.68;;
21754;SDS011;11039;50.028;19.938;2023-01-29T04:51:24;7.88;;;6.25;;
21754;SDS011;11039;50.028;19.938;2023-01-29T04:59:31;7.03;;;5.65;;
21754;SDS011;11039;50.028;19.938;2023-01-29T05:01:48;6.25;;;5.55;;
21754;SDS011;11039;50.028;19.938;2023-01-29T05:04:15;7.88;;;5.82;;
21754;SDS011;11039;50.028;19.938;2023-01-29T05:06:42;6.63;;;5.45;;
21754;SDS011;11039;50.028;19.938;2023-01-29T05:09:11;6.90;;;5.88;;
21754;SDS011;11039;50.028;19.938;2023-01-29T05:11:39;7.10;;;5.40;;
21754;SDS011;11039;50.028;19.938;2023-01-29T05:14:05;6.30;;;5.45;;
21754;SDS011;11039;50.028;19.938;2023-01-29T05:16:33;6.20;;;5.25;;
21754;SDS011;11039;50.028;19.938;2023-01-29T05:19:07;6.78;;;5.88;;
21754;SDS011;11039;50.028;19.938;2023-01-29T05:21:34;6.57;;;5.43;;
21754;SDS011;11039;50.028;19.938;2023-01-29T05:26:35;6.22;;;5.35;;
21754;SDS011;11039;50.028;19.938;2023-01-29T05:29:20;6.72;;;5.70;;
21754;SDS011;11039;50.028;19.938;2023-01-29T05:31:46;5.90;;;5.05;;
21754;SDS011;11039;50.028;19.938;2023-01-29T05:34:12;7.32;;;5.53;;
21754;SDS011;11039;50.028;19.938;2023-01-29T05:36:38;6.25;;;5.40;;
21754;SDS011;11039;50.028;19.938;2023-01-29T05:39:04;6.72;;;5.43;;
21754;SDS011;11039;50.028;19.938;2023-01-29T05:41:30;6.80;;;5.80;;
21754;SDS011;11039;50.028;19.938;2023-01-29T05:43:56;6.40;;;5.28;;
21754;SDS011;11039;50.028;19.938;2023-01-29T05:46:22;6.15;;;5.35;;
21754;SDS011;11039;50.028;19.938;2023-01-29T05:48:51;6.20;;;5.60;;
21754;SDS011;11039;50.028;19.938;2023-01-29T05:51:17;5.70;;;4.95;;
21754;SDS011;11039;50.028;19.938;2023-01-29T05:53:43;6.28;;;5.55;;
21754;SDS011;11039;50.028;19.938;2023-01-29T05:56:09;6.20;;;5.20;;
21754;SDS011;11039;50.028;19.938;2023-01-29T05:58:35;6.03;;;5.38;;
21754;SDS011;11039;50.028;19.938;2023-01-29T06:01:14;6.32;;;5.40;;
21754;SDS011;11039;50.028;19.938;2023-01-29T06:03:40;6.22;;;5.22;;
21754;SDS011;11039;50.028;19.938;2023-01-29T06:06:06;6.22;;;5.07;;
21754;SDS011;11039;50.028;19.938;2023-01-29T06:08:33;6.03;;;5.10;;
21754;SDS011;11039;50.028;19.938;2023-01-29T06:10:59;6.35;;;5.28;;
21754;SDS011;11039;50.028;19.938;2023-01-29T06:13:25;6.35;;;5.10;;
21754;SDS011;11039;50.028;19.938;2023-01-29T06:15:51;5.75;;;5.03;;
21754;SDS011;11039;50.028;19.938;2023-01-29T06:18:17;6.43;;;5.03;;
21754;SDS011;11039;50.028;19.938;2023-01-29T06:20:43;5.93;;;4.93;;
21754;SDS011;11039;50.028;19.938;2023-01-29T06:23:09;5.43;;;4.57;;
21754;SDS011;11039;50.028;19.938;2023-01-29T06:25:35;5.57;;;5.07;;
21754;SDS011;11039;50.028;19.938;2023-01-29T06:28:01;5.35;;;4.60;;
21754;SDS011;11039;50.028;19.938;2023-01-29T06:30:27;5.43;;;4.50;;
21754;SDS011;11039;50.028;19.938;2023-01-29T06:32:57;5.68;;;4.78;;
21754;SDS011;11039;50.028;19.938;2023-01-29T06:35:25;4.93;;;4.43;;
21754;SDS011;11039;50.028;19.938;2023-01-29T06:37:51;5.68;;;4.78;;
21754;SDS011;11039;50.028;19.938;2023-01-29T06:40:17;5.32;;;4.47;;
21754;SDS011;11039;50.028;19.938;2023-01-29T06:42:43;5.60;;;4.60;;
21754;SDS011;11039;50.028;19.938;2023-01-29T06:45:09;5.80;;;4.80;;
21754;SDS011;11039;50.028;19.938;2023-01-29T06:47:35;7.55;;;4.68;;
21754;SDS011;11039;50.028;19.938;2023-01-29T06:50:02;5.72;;;4.60;;
21754;SDS011;11039;50.028;19.938;2023-01-29T06:52:28;4.90;;;4.15;;
21754;SDS011;11039;50.028;19.938;2023-01-29T06:54:54;5.63;;;4.60;;
21754;SDS011;11039;50.028;19.938;2023-01-29T06:57:21;5.90;;;4.10;;
21754;SDS011;11039;50.028;19.938;2023-01-29T06:59:47;5.13;;;4.10;;
21754;SDS011;11039;50.028;19.938;2023-01-29T07:02:13;6.07;;;4.43;;
21754;SDS011;11039;50.028;19.938;2023-01-29T07:04:39;5.30;;;4.47;;
21754;SDS011;11039;50.028;19.938;2023-01-29T07:07:07;4.35;;;3.80;;
21754;SDS011;11039;50.028;19.938;2023-01-29T07:09:38;4.72;;;3.85;;
21754;SDS011;11039;50.028;19.938;2023-01-29T07:12:04;4.43;;;3.90;;
21754;SDS011;11039;50.028;19.938;2023-01-29T07:14:30;4.80;;;3.85;;
21754;SDS011;11039;50.028;19.938;2023-01-29T07:16:56;4.35;;;3.75;;
21754;SDS011;11039;50.028;19.938;2023-01-29T07:19:22;5.25;;;4.10;;
21754;SDS011;11039;50.028;19.938;2023-01-29T07:21:48;4.10;;;3.70;;
21754;SDS011;11039;50.028;19.938;2023-01-29T07:24:14;4.53;;;3.90;;
21754;SDS011;11039;50.028;19.938;2023-01-29T07:26:40;4.35;;;3.88;;
21754;SDS011;11039;50.028;19.938;2023-01-29T07:29:06;5.50;;;3.83;;
21754;SDS011;11039;50.028;19.938;2023-01-29T07:31:33;3.97;;;3.35;;
21754;SDS011;11039;50.028;19.938;2023-01-29T07:33:59;4.60;;;4.05;;
21754;SDS011;11039;50.028;19.938;2023-01-29T07:36:25;6.07;;;3.70;;
21754;SDS011;11039;50.028;19.938;2023-01-29T07:38:51;4.43;;;3.55;;
21754;SDS011;11039;50.028;19.938;2023-01-29T07:41:17;4.28;;;3.38;;
21754;SDS011;11039;50.028;19.938;2023-01-29T07:43:43;5.05;;;3.80;;
21754;SDS011;11039;50.028;19.938;2023-01-29T07:46:09;4.15;;;3.63;;
21754;SDS011;11039;50.028;19.938;2023-01-29T07:48:35;4.63;;;3.50;;
21754;SDS011;11039;50.028;19.938;2023-01-29T07:51:02;3.90;;;3.33;;
21754;SDS011;11039;50.028;19.938;2023-01-29T07:53:28;3.60;;;2.95;;
21754;SDS011;11039;50.028;19.938;2023-01-29T07:55:54;4.70;;;3.58;;
21754;SDS011;11039;50.028;19.938;2023-01-29T07:58:20;4.28;;;3.42;;
21754;SDS011;11039;50.028;19.938;2023-01-29T08:00:47;3.10;;;2.80;;
21754;SDS011;11039;50.028;19.938;2023-01-29T08:03:14;4.05;;;3.20;;
21754;SDS011;11039;50.028;19.938;2023-01-29T08:05:40;4.63;;;3.47;;
21754;SDS011;11039;50.028;19.938;2023-01-29T08:08:06;3.97;;;3.20;;
21754;SDS011;11039;50.028;19.938;2023-01-29T08:10:36;4.43;;;3.50;;
21754;SDS011;11039;50.028;19.938;2023-01-29T08:13:02;4.55;;;3.42;;
21754;SDS011;11039;50.028;19.938;2023-01-29T08:15:28;3.72;;;3.10;;
21754;SDS011;11039;50.028;19.938;2023-01-29T08:17:55;3.47;;;3.17;;
21754;SDS011;11039;50.028;19.938;2023-01-29T08:20:21;3.70;;;3.25;;
21754;SDS011;11039;50.028;19.938;2023-01-29T08:22:47;3.90;;;3.10;;
21754;SDS011;11039;50.028;19.938;2023-01-29T08:25:14;3.40;;;3.10;;
21754;SDS011;11039;50.028;19.938;2023-01-29T08:27:40;3.38;;;2.80;;
21754;SDS011;11039;50.028;19.938;2023-01-29T08:30:07;4.93;;;2.75;;
21754;SDS011;11039;50.028;19.938;2023-01-29T08:32:34;3.42;;;3.00;;
21754;SDS011;11039;50.028;19.938;2023-01-29T08:35:00;3.47;;;2.85;;
21754;SDS011;11039;50.028;19.938;2023-01-29T08:37:26;3.78;;;2.78;;
21754;SDS011;11039;50.028;19.938;2023-01-29T08:39:52;3.97;;;2.85;;
21754;SDS011;11039;50.028;19.938;2023-01-29T08:42:18;3.00;;;2.70;;
21754;SDS011;11039;50.028;19.938;2023-01-29T08:44:44;3.58;;;2.80;;
21754;SDS011;11039;50.028;19.938;2023-01-29T08:47:10;4.10;;;3.22;;
21754;SDS011;11039;50.028;19.938;2023-01-29T08:49:36;4.45;;;3.00;;
21754;SDS011;11039;50.028;19.938;2023-01-29T08:52:02;3.85;;;2.90;;
21754;SDS011;11039;50.028;19.938;2023-01-29T08:54:28;3.78;;;2.95;;
21754;SDS011;11039;50.028;19.938;2023-01-29T08:56:54;3.40;;;2.60;;
21754;SDS011;11039;50.028;19.938;2023-01-29T08:59:20;3.47;;;3.15;;
21754;SDS011;11039;50.028;19.938;2023-01-29T09:01:47;3.60;;;2.70;;
21754;SDS011;11039;50.028;19.938;2023-01-29T09:04:13;3.75;;;2.75;;
21754;SDS011;11039;50.028;19.938;2023-01-29T09:06:39;4.50;;;3.00;;
21754;SDS011;11039;50.028;19.938;2023-01-29T09:09:05;3.55;;;2.80;;
21754;SDS011;11039;50.028;19.938;2023-01-29T09:11:32;3.85;;;2.97;;
21754;SDS011;11039;50.028;19.938;2023-01-29T09:13:58;3.45;;;2.88;;
21754;SDS011;11039;50.028;19.938;2023-01-29T09:16:24;3.97;;;2.55;;
21754;SDS011;11039;50.028;19.938;2023-01-29T09:18:51;3.42;;;2.83;;
21754;SDS011;11039;50.028;19.938;2023-01-29T09:21:17;4.35;;;3.03;;
21754;SDS011;11039;50.028;19.938;2023-01-29T09:23:43;3.25;;;2.60;;
21754;SDS011;11039;50.028;19.938;2023-01-29T09:26:09;3.25;;;2.55;;
21754;SDS011;11039;50.028;19.938;2023-01-29T09:28:35;4.05;;;2.70;;
21754;SDS011;11039;50.028;19.938;2023-01-29T09:31:01;4.30;;;3.15;;
21754;SDS011;11039;50.028;19.938;2023-01-29T09:33:28;3.15;;;2.28;;
21754;SDS011;11039;50.028;19.938;2023-01-29T09:35:55;4.47;;;2.80;;
21754;SDS011;11039;50.028;19.938;2023-01-29T09:38:21;3.83;;;2.72;;
21754;SDS011;11039;50.028;19.938;2023-01-29T09:43:19;3.22;;;2.35;;
21754;SDS011;11039;50.028;19.938;2023-01-29T09:45:54;5.28;;;3.03;;
21754;SDS011;11039;50.028;19.938;2023-01-29T09:48:21;5.57;;;2.78;;
21754;SDS011;11039;50.028;19.938;2023-01-29T09:50:49;4.07;;;2.95;;
21754;SDS011;11039;50.028;19.938;2023-01-29T09:53:24;4.78;;;2.67;;
21754;SDS011;11039;50.028;19.938;2023-01-29T09:56:03;4.95;;;2.92;;
21754;SDS011;11039;50.028;19.938;2023-01-29T09:58:31;6.28;;;2.63;;
21754;SDS011;11039;50.028;19.938;2023-01-29T10:01:01;4.80;;;2.78;;
21754;SDS011;11039;50.028;19.938;2023-01-29T10:03:42;5.07;;;2.78;;
21754;SDS011;11039;50.028;19.938;2023-01-29T10:06:19;3.97;;;2.58;;
21754;SDS011;11039;50.028;19.938;2023-01-29T10:09:11;3.97;;;2.72;;
21754;SDS011;11039;50.028;19.938;2023-01-29T10:12:03;5.72;;;3.22;;
21754;SDS011;11039;50.028;19.938;2023-01-29T10:14:38;4.50;;;2.80;;
21754;SDS011;11039;50.028;19.938;2023-01-29T10:22:53;5.65;;;3.13;;
21754;SDS011;11039;50.028;19.938;2023-01-29T10:25:01;4.60;;;2.92;;
21754;SDS011;11039;50.028;19.938;2023-01-29T10:27:31;6.47;;;3.40;;
21754;SDS011;11039;50.028;19.938;2023-01-29T10:29:58;5.28;;;2.92;;
21754;SDS011;11039;50.028;19.938;2023-01-29T10:32:25;9.45;;;2.95;;
21754;SDS011;11039;50.028;19.938;2023-01-29T10:35:02;4.65;;;3.10;;
21754;SDS011;11039;50.028;19.938;2023-01-29T10:37:38;4.07;;;3.08;;
21754;SDS011;11039;50.028;19.938;2023-01-29T10:42:39;4.25;;;3.22;;
21754;SDS011;11039;50.028;19.938;2023-01-29T11:02:46;5.78;;;3.30;;
21754;SDS011;11039;50.028;19.938;2023-01-29T11:05:23;6.57;;;4.35;;
21754;SDS011;11039;50.028;19.938;2023-01-29T11:07:59;4.88;;;2.83;;
21754;SDS011;11039;50.028;19.938;2023-01-29T11:10:26;5.43;;;3.22;;
21754;SDS011;11039;50.028;19.938;2023-01-29T11:12:53;6.82;;;3.80;;
21754;SDS011;11039;50.028;19.938;2023-01-29T11:15:27;6.32;;;3.88;;
21754;SDS011;11039;50.028;19.938;2023-01-29T11:18:12;5.47;;;3.47;;
21754;SDS011;11039;50.028;19.938;2023-01-29T11:20:43;4.72;;;3.33;;
21754;SDS011;11039;50.028;19.938;2023-01-29T11:23:22;5.72;;;3.47;;
21754;SDS011;11039;50.028;19.938;2023-01-29T11:25:53;5.15;;;3.50;;
21754;SDS011;11039;50.028;19.938;2023-01-29T11:28:53;6.93;;;3.28;;
21754;SDS011;11039;50.028;19.938;2023-01-29T11:31:20;10.50;;;6.85;;
21754;SDS011;11039;50.028;19.938;2023-01-29T11:33:47;10.02;;;7.60;;
21754;SDS011;11039;50.028;19.938;2023-01-29T11:41:59;10.52;;;7.80;;
21754;SDS011;11039;50.028;19.938;2023-01-29T11:46:53;8.18;;;6.15;;
21754;SDS011;11039;50.028;19.938;2023-01-29T11:49:22;8.68;;;6.40;;
21754;SDS011;11039;50.028;19.938;2023-01-29T11:51:50;8.90;;;6.10;;
21754;SDS011;11039;50.028;19.938;2023-01-29T11:54:17;8.07;;;5.60;;
21754;SDS011;11039;50.028;19.938;2023-01-29T11:56:44;7.57;;;5.28;;
21754;SDS011;11039;50.028;19.938;2023-01-29T12:04:39;9.00;;;4.72;;
21754;SDS011;11039;50.028;19.938;2023-01-29T12:07:09;8.18;;;4.63;;
21754;SDS011;11039;50.028;19.938;2023-01-29T12:09:36;7.40;;;5.07;;
21754;SDS011;11039;50.028;19.938;2023-01-29T12:12:16;8.43;;;5.00;;
21754;SDS011;11039;50.028;19.938;2023-01-29T12:14:43;8.63;;;6.07;;
21754;SDS011;11039;50.028;19.938;2023-01-29T12:17:11;12.93;;;6.45;;
21754;SDS011;11039;50.028;19.938;2023-01-29T12:19:43;10.55;;;6.95;;
21754;SDS011;11039;50.028;19.938;2023-01-29T12:32:38;11.23;;;8.65;;
21754;SDS011;11039;50.028;19.938;2023-01-29T12:35:20;10.85;;;7.95;;
21754;SDS011;11039;50.028;19.938;2023-01-29T12:37:53;11.32;;;7.97;;
21754;SDS011;11039;50.028;19.938;2023-01-29T12:40:20;10.82;;;7.95;;
21754;SDS011;11039;50.028;19.938;2023-01-29T12:42:49;10.80;;;7.35;;
21754;SDS011;11039;50.028;19.938;2023-01-29T12:45:17;9.77;;;7.75;;
21754;SDS011;11039;50.028;19.938;2023-01-29T12:47:48;10.23;;;7.97;;
21754;SDS011;11039;50.028;19.938;2023-01-29T12:52:45;9.70;;;7.68;;
21754;SDS011;11039;50.028;19.938;2023-01-29T13:00:18;10.23;;;7.13;;
21754;SDS011;11039;50.028;19.938;2023-01-29T13:05:30;10.57;;;7.15;;
21754;SDS011;11039;50.028;19.938;2023-01-29T13:08:09;9.25;;;6.80;;
21754;SDS011;11039;50.028;19.938;2023-01-29T13:10:37;8.77;;;6.70;;
21754;SDS011;11039;50.028;19.938;2023-01-29T13:15:51;8.98;;;7.07;;
21754;SDS011;11039;50.028;19.938;2023-01-29T13:20:49;9.80;;;7.30;;
21754;SDS011;11039;50.028;19.938;2023-01-29T13:23:34;10.35;;;7.70;;
21754;SDS011;11039;50.028;19.938;2023-01-29T13:26:01;11.60;;;7.80;;
21754;SDS011;11039;50.028;19.938;2023-01-29T13:28:27;13.40;;;7.82;;
21754;SDS011;11039;50.028;19.938;2023-01-29T13:31:15;9.07;;;7.30;;
21754;SDS011;11039;50.028;19.938;2023-01-29T13:33:43;10.45;;;6.97;;
21754;SDS011;11039;50.028;19.938;2023-01-29T13:36:17;9.52;;;7.40;;
21754;SDS011;11039;50.028;19.938;2023-01-29T13:38:46;12.20;;;7.57;;
21754;SDS011;11039;50.028;19.938;2023-01-29T13:41:19;12.18;;;7.65;;
21754;SDS011;11039;50.028;19.938;2023-01-29T13:43:55;8.32;;;7.07;;
21754;SDS011;11039;50.028;19.938;2023-01-29T13:46:21;8.50;;;6.85;;
21754;SDS011;11039;50.028;19.938;2023-01-29T13:48:48;9.35;;;6.65;;
21754;SDS011;11039;50.028;19.938;2023-01-29T13:51:16;9.32;;;6.78;;
21754;SDS011;11039;50.028;19.938;2023-01-29T13:53:51;8.52;;;6.20;;
21754;SDS011;11039;50.028;19.938;2023-01-29T13:58:57;10.35;;;5.97;;
21754;SDS011;11039;50.028;19.938;2023-01-29T14:04:21;7.75;;;6.15;;
21754;SDS011;11039;50.028;19.938;2023-01-29T14:06:58;10.80;;;6.65;;
21754;SDS011;11039;50.028;19.938;2023-01-29T14:10:00;8.25;;;6.45;;
21754;SDS011;11039;50.028;19.938;2023-01-29T14:17:14;10.48;;;7.60;;
21754;SDS011;11039;50.028;19.938;2023-01-29T14:19:55;9.23;;;6.93;;
21754;SDS011;11039;50.028;19.938;2023-01-29T14:22:23;10.88;;;7.30;;
21754;SDS011;11039;50.028;19.938;2023-01-29T14:24:58;9.80;;;6.90;;
21754;SDS011;11039;50.028;19.938;2023-01-29T14:27:25;9.05;;;6.78;;
21754;SDS011;11039;50.028;19.938;2023-01-29T14:29:56;9.98;;;6.88;;
21754;SDS011;11039;50.028;19.938;2023-01-29T14:32:23;11.48;;;7.50;;
21754;SDS011;11039;50.028;19.938;2023-01-29T14:35:00;8.95;;;6.40;;
21754;SDS011;11039;50.028;19.938;2023-01-29T14:37:31;8.68;;;6.97;;
21754;SDS011;11039;50.028;19.938;2023-01-29T14:39:58;8.13;;;6.38;;
21754;SDS011;11039;50.028;19.938;2023-01-29T14:42:36;9.33;;;6.77;;
21754;SDS011;11039;50.028;19.938;2023-01-29T14:52:43;8.77;;;6.28;;
21754;SDS011;11039;50.028;19.938;2023-01-29T14:55:28;7.95;;;5.47;;
21754;SDS011;11039;50.028;19.938;2023-01-29T14:57:55;8.98;;;5.60;;
21754;SDS011;11039;50.028;19.938;2023-01-29T15:00:32;7.80;;;5.40;;
21754;SDS011;11039;50.028;19.938;2023-01-29T15:02:59;7.90;;;6.00;;
21754;SDS011;11039;50.028;19.938;2023-01-29T15:05:27;8.68;;;5.60;;
21754;SDS011;11039;50.028;19.938;2023-01-29T15:07:55;7.03;;;5.30;;
21754;SDS011;11039;50.028;19.938;2023-01-29T15:12:49;9.07;;;6.05;;
21754;SDS011;11039;50.028;19.938;2023-01-29T15:15:24;8.00;;;5.32;;
21754;SDS011;11039;50.028;19.938;2023-01-29T15:18:11;6.57;;;5.28;;
21754;SDS011;11039;50.028;19.938;2023-01-29T15:20:38;8.60;;;5.32;;
21754;SDS011;11039;50.028;19.938;2023-01-29T15:25:50;7.15;;;5.22;;
21754;SDS011;11039;50.028;19.938;2023-01-29T15:28:17;7.85;;;5.10;;
21754;SDS011;11039;50.028;19.938;2023-01-29T15:30:43;6.60;;;4.93;;
21754;SDS011;11039;50.028;19.938;2023-01-29T15:33:09;6.03;;;4.50;;
21754;SDS011;11039;50.028;19.938;2023-01-29T15:35:36;6.50;;;5.07;;
21754;SDS011;11039;50.028;19.938;2023-01-29T15:40:29;7.13;;;4.95;;
21754;SDS011;11039;50.028;19.938;2023-01-29T15:42:55;8.18;;;5.20;;
21754;SDS011;11039;50.028;19.938;2023-01-29T15:47:48;6.38;;;5.18;;
21754;SDS011;11039;50.028;19.938;2023-01-29T15:50:14;6.82;;;4.70;;
21754;SDS011;11039;50.028;19.938;2023-01-29T15:52:40;7.43;;;4.82;;
21754;SDS011;11039;50.028;19.938;2023-01-29T15:55:06;7.18;;;5.15;;
21754;SDS011;11039;50.028;19.938;2023-01-29T15:57:36;6.70;;;4.68;;
21754;SDS011;11039;50.028;19.938;2023-01-29T16:00:05;6.90;;;5.18;;
21754;SDS011;11039;50.028;19.938;2023-01-29T16:02:39;8.70;;;5.78;;
21754;SDS011;11039;50.028;19.938;2023-01-29T16:05:09;8.13;;;5.30;;
21754;SDS011;11039;50.028;19.938;2023-01-29T16:07:36;7.80;;;5.40;;
21754;SDS011;11039;50.028;19.938;2023-01-29T16:10:03;6.82;;;5.18;;
21754;SDS011;11039;50.028;19.938;2023-01-29T16:12:29;8.80;;;5.65;;
21754;SDS011;11039;50.028;19.938;2023-01-29T16:14:56;7.20;;;5.25;;
21754;SDS011;11039;50.028;19.938;2023-01-29T16:19:56;7.47;;;5.65;;
21754;SDS011;11039;50.028;19.938;2023-01-29T16:22:22;9.15;;;6.43;;
21754;SDS011;11039;50.028;19.938;2023-01-29T16:24:48;8.23;;;6.00;;
21754;SDS011;11039;50.028;19.938;2023-01-29T16:27:17;10.45;;;6.78;;
21754;SDS011;11039;50.028;19.938;2023-01-29T16:29:43;9.63;;;6.57;;
21754;SDS011;11039;50.028;19.938;2023-01-29T16:32:09;8.52;;;6.60;;
21754;SDS011;11039;50.028;19.938;2023-01-29T16:37:04;8.75;;;7.20;;
21754;SDS011;11039;50.028;19.938;2023-01-29T16:39:31;10.65;;;7.75;;
21754;SDS011;11039;50.028;19.938;2023-01-29T16:42:06;11.27;;;8.07;;
21754;SDS011;11039;50.028;19.938;2023-01-29T16:44:51;10.73;;;8.25;;
21754;SDS011;11039;50.028;19.938;2023-01-29T16:49:54;11.95;;;8.63;;
21754;SDS011;11039;50.028;19.938;2023-01-29T16:52:31;10.55;;;8.25;;
21754;SDS011;11039;50.028;19.938;2023-01-29T16:55:12;12.25;;;8.70;;
21754;SDS011;11039;50.028;19.938;2023-01-29T16:57:39;11.65;;;8.38;;
21754;SDS011;11039;50.028;19.938;2023-01-29T17:00:17;12.27;;;8.45;;
21754;SDS011;11039;50.028;19.938;2023-01-29T17:02:43;12.40;;;9.02;;
21754;SDS011;11039;50.028;19.938;2023-01-29T17:05:16;11.55;;;8.40;;
21754;SDS011;11039;50.028;19.938;2023-01-29T17:07:44;10.60;;;8.23;;
21754;SDS011;11039;50.028;19.938;2023-01-29T17:10:14;12.07;;;8.65;;
21754;SDS011;11039;50.028;19.938;2023-01-29T17:12:41;12.30;;;9.15;;
21754;SDS011;11039;50.028;19.938;2023-01-29T17:15:27;12.88;;;9.25;;
21754;SDS011;11039;50.028;19.938;2023-01-29T17:17:54;11.93;;;8.95;;
21754;SDS011;11039;50.028;19.938;2023-01-29T17:20:20;12.10;;;8.85;;
21754;SDS011;11039;50.028;19.938;2023-01-29T17:22:46;11.70;;;8.48;;